Time;durP1;ratioP1;P1;durP2;ratioP2;P2;SDS_P1;SDS_P2;PMS_P1;PMS_P2;Temp;Humidity;BMP_temperature;BMP_pressure;BME280_temperature;BME280_humidity;BME280_pressure;Samples;Min_cycle;Max_cycle;Signal;HPM_P1;HPM_P2
2022/08/31 00:03:53;;;;;;;15.17;9.80;;;18.30;44.10;;;;;;4980719;28;45834;-68
2022/08/31 00:06:20;;;;;;;14.47;10.73;;;18.40;44.20;;;;;;4982820;28;46300;-68
2022/08/31 00:08:45;;;;;;;14.70;10.17;;;18.40;44.10;;;;;;4982252;28;46441;-68
2022/08/31 00:11:13;;;;;;;16.03;10.57;;;18.30;44.10;;;;;;4982796;28;46361;-68
2022/08/31 00:13:40;;;;;;;17.00;10.70;;;18.30;43.40;;;;;;4981654;28;46419;-69
2022/08/31 00:16:07;;;;;;;19.33;11.50;;;18.30;44.80;;;;;;4981432;28;46522;-68
2022/08/31 00:18:33;;;;;;;16.90;9.90;;;18.20;45.00;;;;;;4978891;28;46298;-68
2022/08/31 00:20:59;;;;;;;16.30;11.10;;;18.20;45.00;;;;;;4982131;28;46569;-68
2022/08/31 00:23:24;;;;;;;14.33;10.73;;;18.30;43.90;;;;;;4982004;28;46608;-68
2022/08/31 00:25:51;;;;;;;16.50;11.33;;;18.30;44.80;;;;;;4981517;28;46570;-68
2022/08/31 00:28:17;;;;;;;15.27;10.83;;;18.30;44.60;;;;;;4980175;28;46463;-68
2022/08/31 00:30:43;;;;;;;15.70;10.77;;;18.30;44.60;;;;;;4978676;28;46405;-67
2022/08/31 00:33:10;;;;;;;16.07;9.57;;;18.30;44.60;;;;;;4979690;28;46489;-67
2022/08/31 00:35:37;;;;;;;12.93;9.83;;;18.30;44.60;;;;;;4981070;28;46396;-67
2022/08/31 00:38:04;;;;;;;14.13;9.40;;;18.30;44.80;;;;;;4981805;28;46390;-68
2022/08/31 00:40:31;;;;;;;15.10;10.97;;;18.30;44.90;;;;;;4981572;28;45896;-67
2022/08/31 00:42:59;;;;;;;16.23;11.43;;;18.30;45.00;;;;;;4981945;28;46536;-69
2022/08/31 00:45:25;;;;;;;20.63;10.70;;;18.10;44.90;;;;;;4979432;28;46919;-68
2022/08/31 00:47:51;;;;;;;16.80;10.07;;;18.20;45.30;;;;;;4981020;28;48079;-69
2022/08/31 00:50:18;;;;;;;13.90;10.37;;;18.10;45.60;;;;;;4981005;28;46428;-68
2022/08/31 00:52:50;;;;;;;19.33;10.87;;;18.10;45.90;;;;;;4980107;28;46324;-69
2022/08/31 00:55:21;;;;;;;14.80;10.33;;;18.00;45.80;;;;;;4981612;28;46671;-68
2022/08/31 00:57:51;;;;;;;17.17;10.67;;;18.00;45.80;;;;;;4979957;28;47205;-68
2022/08/31 01:00:22;;;;;;;18.40;10.40;;;18.40;46.10;;;;;;4979951;28;46395;-67
2022/08/31 01:02:48;;;;;;;14.60;10.07;;;18.00;45.80;;;;;;4982247;28;46276;-68
2022/08/31 01:05:15;;;;;;;13.50;9.87;;;18.10;45.90;;;;;;4979594;28;46602;-68
2022/08/31 01:07:46;;;;;;;14.13;9.60;;;18.10;45.70;;;;;;4980384;28;46463;-70
2022/08/31 01:10:12;;;;;;;16.20;10.83;;;18.20;45.40;;;;;;4980897;28;45905;-68
2022/08/31 01:12:40;;;;;;;18.00;10.20;;;18.20;45.20;;;;;;4979186;28;46884;-68
2022/08/31 01:15:07;;;;;;;15.57;9.97;;;18.20;45.30;;;;;;4981348;28;46432;-68
2022/08/31 01:17:37;;;;;;;16.87;11.10;;;18.10;45.50;;;;;;4978290;28;47890;-69
2022/08/31 01:20:26;;;;;;;20.80;11.27;;;18.10;45.90;;;;;;4979929;28;46461;-68
2022/08/31 01:23:12;;;;;;;17.67;10.47;;;18.10;46.00;;;;;;4979111;28;46361;-69
2022/08/31 01:25:41;;;;;;;17.83;10.47;;;17.90;45.70;;;;;;4980910;28;46201;-68
2022/08/31 01:28:08;;;;;;;17.40;11.00;;;18.00;45.90;;;;;;4978165;28;46384;-69
2022/08/31 01:30:35;;;;;;;14.20;10.20;;;18.00;47.00;;;;;;4981563;28;46429;-68
2022/08/31 01:33:01;;;;;;;19.30;11.23;;;18.00;45.80;;;;;;4980289;28;46474;-68
2022/08/31 01:35:27;;;;;;;15.03;10.40;;;17.90;46.10;;;;;;4981606;28;46662;-68
2022/08/31 01:37:54;;;;;;;15.73;10.30;;;17.90;46.60;;;;;;4979318;28;47161;-68
2022/08/31 01:40:23;;;;;;;15.90;10.50;;;17.90;46.90;;;;;;4978382;28;46700;-69
2022/08/31 01:42:49;;;;;;;17.67;11.47;;;17.80;47.10;;;;;;4978470;28;46537;-68
2022/08/31 01:45:14;;;;;;;19.07;11.20;;;17.80;47.40;;;;;;4977510;28;46360;-68
2022/08/31 01:47:40;;;;;;;18.03;11.20;;;17.80;47.80;;;;;;4978865;28;46443;-68
2022/08/31 01:50:06;;;;;;;16.20;10.67;;;17.70;48.20;;;;;;4993438;28;46793;-70
2022/08/31 01:52:34;;;;;;;17.50;10.60;;;17.70;48.50;;;;;;4977594;28;46482;-68
2022/08/31 01:55:02;;;;;;;16.03;10.40;;;17.70;48.60;;;;;;4979589;28;46458;-70
2022/08/31 01:57:28;;;;;;;15.80;11.10;;;17.70;48.60;;;;;;4979485;28;46677;-70
2022/08/31 01:59:53;;;;;;;16.50;11.77;;;17.70;48.80;;;;;;4979368;28;46422;-70
2022/08/31 02:02:19;;;;;;;15.93;10.33;;;17.70;49.10;;;;;;4980191;28;46511;-69
2022/08/31 02:04:44;;;;;;;17.30;10.93;;;17.70;49.40;;;;;;4978880;28;46492;-69
2022/08/31 02:07:10;;;;;;;15.43;10.43;;;17.60;49.40;;;;;;4991208;28;48077;-69
2022/08/31 02:09:36;;;;;;;16.03;11.00;;;17.60;49.80;;;;;;4978502;28;45893;-69
2022/08/31 02:12:02;;;;;;;15.30;10.77;;;17.50;49.60;;;;;;4979129;28;45883;-69
2022/08/31 02:14:27;;;;;;;19.50;10.67;;;17.50;50.60;;;;;;4977896;28;46380;-69
2022/08/31 02:16:53;;;;;;;17.60;10.03;;;17.50;50.90;;;;;;4977556;28;47174;-69
2022/08/31 02:19:19;;;;;;;14.00;9.70;;;17.40;51.10;;;;;;4979162;28;46246;-69
2022/08/31 02:21:44;;;;;;;16.40;10.37;;;17.40;50.60;;;;;;4978118;28;45848;-68
2022/08/31 02:24:11;;;;;;;20.60;10.77;;;17.40;51.60;;;;;;4978326;28;46546;-68
2022/08/31 02:26:37;;;;;;;18.53;11.20;;;17.40;51.60;;;;;;4978463;28;47461;-69
2022/08/31 02:29:06;;;;;;;15.43;11.60;;;17.50;51.60;;;;;;4976293;28;46707;-69
2022/08/31 02:31:31;;;;;;;16.90;10.47;;;17.40;50.70;;;;;;4978319;28;46427;-68
2022/08/31 02:33:57;;;;;;;13.43;9.70;;;17.40;51.90;;;;;;4978194;28;46657;-69
2022/08/31 02:36:23;;;;;;;21.20;13.43;;;17.40;52.00;;;;;;4977661;28;48006;-68
2022/08/31 02:38:49;;;;;;;20.63;15.37;;;17.50;52.10;;;;;;4990084;28;46353;-68
2022/08/31 02:41:16;;;;;;;18.10;12.30;;;17.50;52.00;;;;;;4979480;28;46533;-68
2022/08/31 02:43:42;;;;;;;18.70;12.40;;;17.50;50.90;;;;;;4979350;28;46414;-68
2022/08/31 02:46:07;;;;;;;17.10;12.00;;;17.50;52.10;;;;;;4978955;28;47216;-68
2022/08/31 02:48:33;;;;;;;18.80;10.00;;;17.50;52.00;;;;;;4978119;28;45848;-68
2022/08/31 02:51:04;;;;;;;16.23;10.87;;;17.50;52.10;;;;;;4978847;28;46509;-68
2022/08/31 02:53:30;;;;;;;17.93;11.53;;;17.50;51.30;;;;;;4977852;28;46371;-68
2022/08/31 02:55:56;;;;;;;21.07;13.47;;;17.50;52.20;;;;;;4978561;28;47144;-68
2022/08/31 02:58:21;;;;;;;19.20;13.60;;;17.50;52.20;;;;;;4980972;28;46482;-69
2022/08/31 03:00:47;;;;;;;15.90;12.60;;;17.50;52.20;;;;;;4985485;28;46448;-67
2022/08/31 03:03:14;;;;;;;18.80;13.60;;;17.50;52.20;;;;;;4982496;28;45847;-68
2022/08/31 03:05:40;;;;;;;20.27;12.20;;;17.50;52.30;;;;;;4982640;28;46494;-68
2022/08/31 03:08:06;;;;;;;19.87;12.50;;;17.50;52.50;;;;;;4982775;28;46428;-68
2022/08/31 03:10:32;;;;;;;16.80;11.00;;;17.40;52.70;;;;;;4982083;28;46351;-68
2022/08/31 03:12:57;;;;;;;23.83;13.33;;;17.40;53.20;;;;;;4983539;28;46691;-68
2022/08/31 03:15:24;;;;;;;19.20;13.53;;;17.50;53.00;;;;;;4982267;28;46984;-69
2022/08/31 03:17:50;;;;;;;17.20;11.50;;;17.50;52.80;;;;;;4981825;28;46624;-68
2022/08/31 03:20:17;;;;;;;22.43;11.30;;;17.50;52.70;;;;;;4980254;28;46454;-68
2022/08/31 03:22:43;;;;;;;18.70;12.90;;;17.50;52.70;;;;;;4983408;28;46541;-69
2022/08/31 03:25:09;;;;;;;20.93;11.43;;;17.50;52.90;;;;;;4981618;28;47219;-68
2022/08/31 03:27:36;;;;;;;23.10;10.90;;;17.50;53.10;;;;;;4980839;28;46365;-68
2022/08/31 03:30:04;;;;;;;15.67;11.00;;;17.50;53.30;;;;;;4981699;28;46269;-68
2022/08/31 03:32:30;;;;;;;20.60;11.23;;;17.40;53.50;;;;;;4981208;28;46629;-68
2022/08/31 03:34:58;;;;;;;17.23;10.90;;;17.40;54.00;;;;;;4982014;28;47224;-68
2022/08/31 03:37:24;;;;;;;20.27;11.80;;;17.30;54.20;;;;;;4982290;28;46374;-69
2022/08/31 03:39:50;;;;;;;15.13;10.87;;;17.30;54.40;;;;;;4980461;28;46436;-68
2022/08/31 03:42:17;;;;;;;20.00;11.97;;;17.30;54.70;;;;;;4983139;28;46439;-68
2022/08/31 03:44:43;;;;;;;18.23;11.43;;;17.30;55.00;;;;;;4979101;28;46994;-68
2022/08/31 03:47:08;;;;;;;18.57;11.00;;;17.30;55.20;;;;;;4981336;28;46424;-69
2022/08/31 03:49:34;;;;;;;20.13;10.90;;;17.30;55.10;;;;;;4980642;28;46175;-69
2022/08/31 03:52:01;;;;;;;17.17;11.60;;;17.30;55.00;;;;;;4981590;28;46350;-68
2022/08/31 03:54:26;;;;;;;17.93;12.80;;;17.30;55.10;;;;;;4981385;28;47394;-69
2022/08/31 03:56:52;;;;;;;19.07;12.87;;;17.30;55.40;;;;;;4981124;28;45899;-69
2022/08/31 03:59:18;;;;;;;20.03;12.83;;;17.30;55.50;;;;;;4982822;28;46467;-69
2022/08/31 04:01:43;;;;;;;19.27;12.00;;;17.30;55.30;;;;;;4981920;28;46420;-68
2022/08/31 04:04:11;;;;;;;18.90;11.27;;;17.30;55.40;;;;;;4982753;28;46413;-69
2022/08/31 04:06:39;;;;;;;14.90;11.33;;;17.30;55.40;;;;;;4980156;28;46364;-70
2022/08/31 04:09:05;;;;;;;15.17;10.73;;;17.30;55.30;;;;;;4981119;28;46332;-69
2022/08/31 04:11:30;;;;;;;18.53;11.90;;;17.40;54.40;;;;;;4982613;28;45886;-68
2022/08/31 04:13:56;;;;;;;18.00;11.40;;;17.40;55.50;;;;;;4980967;28;47097;-68
2022/08/31 04:16:22;;;;;;;14.90;10.60;;;17.40;55.50;;;;;;4981849;28;46277;-68
2022/08/31 04:18:48;;;;;;;14.00;9.60;;;17.40;55.60;;;;;;4981895;28;46438;-68
2022/08/31 04:21:18;;;;;;;15.77;11.20;;;17.40;55.70;;;;;;4981965;28;46038;-68
2022/08/31 04:23:45;;;;;;;18.47;12.50;;;17.40;55.00;;;;;;4980267;28;48649;-69
2022/08/31 04:26:20;;;;;;;18.90;11.30;;;17.40;56.30;;;;;;4982440;28;46458;-69
2022/08/31 04:28:46;;;;;;;14.83;10.50;;;17.40;56.60;;;;;;4980037;28;46426;-69
2022/08/31 04:31:11;;;;;;;14.77;10.30;;;17.40;56.50;;;;;;4980624;28;46043;-69
2022/08/31 04:33:38;;;;;;;17.00;11.23;;;17.40;55.50;;;;;;4981134;28;46371;-69
2022/08/31 04:36:08;;;;;;;19.60;10.17;;;17.40;56.60;;;;;;4982078;28;45940;-69
2022/08/31 04:38:35;;;;;;;16.70;11.57;;;17.40;56.90;;;;;;4979828;28;46378;-69
2022/08/31 04:41:05;;;;;;;15.33;10.30;;;17.30;57.20;;;;;;4980607;28;45869;-69
2022/08/31 04:43:31;;;;;;;16.93;11.40;;;17.30;57.00;;;;;;4980858;28;47129;-68
2022/08/31 04:45:57;;;;;;;14.27;11.03;;;17.20;57.90;;;;;;4981823;28;46347;-68
2022/08/31 04:48:23;;;;;;;16.13;10.40;;;17.30;58.30;;;;;;4980952;28;46348;-69
2022/08/31 04:50:49;;;;;;;16.73;10.60;;;17.40;58.00;;;;;;4986412;28;46669;-68
2022/08/31 04:53:15;;;;;;;17.13;11.17;;;17.40;57.90;;;;;;4981270;28;47090;-69
2022/08/31 04:55:41;;;;;;;20.00;11.53;;;17.40;58.00;;;;;;4981159;28;46324;-69
2022/08/31 04:58:07;;;;;;;15.43;10.80;;;17.30;58.10;;;;;;4981151;28;45878;-68
2022/08/31 05:00:33;;;;;;;17.37;11.00;;;17.30;58.30;;;;;;4982252;28;46412;-69
2022/08/31 05:02:59;;;;;;;16.03;11.73;;;17.30;58.40;;;;;;4980894;28;46462;-69
2022/08/31 05:05:24;;;;;;;23.30;11.53;;;17.30;58.40;;;;;;4981258;28;46435;-69
2022/08/31 05:07:50;;;;;;;16.70;11.33;;;17.30;58.30;;;;;;4981160;28;46388;-69
2022/08/31 05:10:16;;;;;;;15.10;11.10;;;17.40;58.30;;;;;;4980633;28;46402;-68
2022/08/31 05:12:43;;;;;;;15.90;11.90;;;17.40;58.00;;;;;;4979266;28;46394;-68
2022/08/31 05:15:09;;;;;;;19.23;12.07;;;17.40;57.70;;;;;;4981216;28;46378;-69
2022/08/31 05:17:35;;;;;;;15.17;11.33;;;17.50;57.80;;;;;;4981619;28;46311;-68
2022/08/31 05:20:00;;;;;;;19.30;12.00;;;17.50;57.80;;;;;;4982181;28;46375;-69
2022/08/31 05:22:28;;;;;;;22.13;11.97;;;17.60;57.90;;;;;;4980744;28;46357;-69
2022/08/31 05:24:54;;;;;;;16.87;11.57;;;17.60;57.70;;;;;;4978709;28;46396;-69
2022/08/31 05:27:19;;;;;;;21.97;11.63;;;17.70;57.60;;;;;;4988773;28;45786;-69
2022/08/31 05:29:45;;;;;;;16.53;10.80;;;17.80;57.60;;;;;;4981171;28;46376;-69
2022/08/31 05:32:11;;;;;;;14.93;10.80;;;17.80;57.30;;;;;;4980805;28;46212;-68
2022/08/31 05:34:36;;;;;;;17.97;12.80;;;17.90;57.30;;;;;;4981221;28;46616;-68
2022/08/31 05:37:02;;;;;;;17.50;11.13;;;18.00;57.30;;;;;;4980488;28;46404;-68
2022/08/31 05:39:29;;;;;;;19.00;10.97;;;18.00;57.20;;;;;;4981262;28;46262;-70
2022/08/31 05:41:55;;;;;;;16.37;11.87;;;18.10;57.10;;;;;;4980764;28;47170;-70
2022/08/31 05:44:20;;;;;;;15.93;11.07;;;18.10;57.10;;;;;;4981518;28;46349;-68
2022/08/31 05:46:47;;;;;;;18.93;11.13;;;18.10;57.20;;;;;;4980954;28;46352;-70
2022/08/31 05:49:12;;;;;;;18.87;11.50;;;18.50;57.40;;;;;;4980079;28;46737;-68
2022/08/31 05:51:38;;;;;;;20.10;10.73;;;18.10;56.10;;;;;;4981004;28;46446;-68
2022/08/31 05:54:05;;;;;;;17.63;12.10;;;18.20;57.30;;;;;;4977948;28;46420;-68
2022/08/31 05:56:30;;;;;;;17.73;11.77;;;18.20;57.10;;;;;;4980985;28;46534;-68
2022/08/31 05:58:56;;;;;;;18.10;11.37;;;18.30;56.90;;;;;;4980500;28;46353;-68
2022/08/31 06:01:25;;;;;;;21.43;12.80;;;18.40;56.70;;;;;;4980968;28;46891;-69
2022/08/31 06:03:52;;;;;;;19.37;11.80;;;18.40;56.90;;;;;;4979671;28;46411;-68
2022/08/31 06:06:19;;;;;;;16.70;12.27;;;18.40;57.00;;;;;;4979116;28;46410;-68
2022/08/31 06:08:45;;;;;;;18.20;11.13;;;18.40;57.10;;;;;;4979545;28;46309;-69
2022/08/31 06:11:16;;;;;;;23.03;11.63;;;18.40;57.00;;;;;;4980206;28;46373;-69
2022/08/31 06:13:42;;;;;;;17.53;12.30;;;18.40;57.00;;;;;;4980849;28;46368;-68
2022/08/31 06:16:08;;;;;;;16.23;12.00;;;18.50;56.80;;;;;;4981424;28;46742;-69
2022/08/31 06:18:39;;;;;;;24.33;12.63;;;18.60;56.60;;;;;;4979670;28;46482;-68
2022/08/31 06:21:08;;;;;;;20.47;11.93;;;18.70;57.50;;;;;;4979323;28;46297;-69
2022/08/31 06:23:38;;;;;;;17.10;12.00;;;18.70;56.00;;;;;;4979677;28;46464;-69
2022/08/31 06:26:11;;;;;;;15.50;11.70;;;18.80;56.00;;;;;;4973930;28;46661;-70
2022/08/31 06:28:39;;;;;;;23.93;12.70;;;18.80;55.70;;;;;;4976167;28;46419;-69
2022/08/31 06:31:10;;;;;;;16.30;11.10;;;18.90;55.90;;;;;;4978800;28;47306;-70
2022/08/31 06:33:38;;;;;;;24.50;12.63;;;18.80;55.80;;;;;;4975888;28;46443;-67
2022/08/31 06:36:12;;;;;;;16.17;12.63;;;18.90;56.00;;;;;;4984200;28;46392;-68
2022/08/31 06:38:39;;;;;;;19.90;12.97;;;18.80;56.00;;;;;;4976178;28;46381;-68
2022/08/31 06:41:12;;;;;;;19.10;12.63;;;18.80;56.10;;;;;;4980315;28;47141;-70
2022/08/31 06:43:37;;;;;;;18.20;13.00;;;18.70;56.30;;;;;;4980791;28;45784;-69
2022/08/31 06:46:04;;;;;;;17.27;12.27;;;18.70;56.40;;;;;;4980517;28;46435;-67
2022/08/31 06:48:29;;;;;;;18.57;12.07;;;18.70;56.40;;;;;;4979820;28;46628;-68
2022/08/31 06:50:56;;;;;;;20.67;12.67;;;18.70;56.10;;;;;;4980684;28;47038;-69
2022/08/31 06:53:22;;;;;;;24.80;12.47;;;18.80;56.00;;;;;;4980373;28;46402;-69
2022/08/31 06:55:48;;;;;;;20.73;13.07;;;18.90;55.90;;;;;;4981497;28;46423;-69
2022/08/31 06:58:13;;;;;;;24.90;13.17;;;18.90;55.80;;;;;;4979056;28;46466;-69
2022/08/31 07:00:39;;;;;;;18.17;12.90;;;18.80;56.10;;;;;;4981383;28;47229;-69
2022/08/31 07:03:21;;;;;;;25.63;12.83;;;18.80;56.20;;;;;;4980118;28;46387;-69
2022/08/31 07:05:49;;;;;;;19.40;12.50;;;18.70;57.50;;;;;;4980619;28;46459;-69
2022/08/31 07:08:15;;;;;;;20.23;13.17;;;18.70;56.50;;;;;;4977796;28;46477;-69
2022/08/31 07:10:41;;;;;;;19.27;13.33;;;18.70;56.50;;;;;;4980278;28;46668;-68
2022/08/31 07:13:07;;;;;;;21.73;11.47;;;18.70;56.40;;;;;;4980292;28;46495;-69
2022/08/31 07:15:32;;;;;;;20.53;11.73;;;18.80;56.50;;;;;;4981529;28;46530;-69
2022/08/31 07:17:58;;;;;;;22.27;11.47;;;18.90;56.30;;;;;;4979862;28;46257;-67
2022/08/31 07:20:23;;;;;;;18.73;11.80;;;19.00;55.90;;;;;;4980492;28;46365;-69
2022/08/31 07:22:49;;;;;;;19.80;11.77;;;19.10;55.70;;;;;;4979334;28;46391;-68
2022/08/31 07:25:16;;;;;;;22.47;10.83;;;19.40;54.90;;;;;;4980659;28;46379;-69
2022/08/31 07:27:43;;;;;;;23.03;12.47;;;19.60;54.20;;;;;;4977056;28;45937;-68
2022/08/31 07:30:09;;;;;;;23.03;10.50;;;19.80;53.60;;;;;;4978276;28;46606;-66
2022/08/31 07:32:37;;;;;;;15.97;11.27;;;19.80;53.40;;;;;;4979586;28;45869;-66
2022/08/31 07:35:03;;;;;;;25.20;10.77;;;19.80;53.30;;;;;;4980953;28;46350;-69
2022/08/31 07:43:03;;;;;;;22.83;10.83;;;19.90;52.70;;;;;;4979599;28;46484;-70
2022/08/31 07:45:29;;;;;;;18.90;11.20;;;19.90;52.50;;;;;;4980771;28;46494;-71
2022/08/31 07:47:56;;;;;;;15.30;11.30;;;19.80;52.70;;;;;;4978852;28;46640;-69
2022/08/31 07:50:22;;;;;;;17.80;11.00;;;19.80;52.70;;;;;;4980409;28;46371;-70
2022/08/31 07:52:53;;;;;;;22.87;12.37;;;19.70;52.80;;;;;;4979424;28;46404;-71
2022/08/31 07:55:20;;;;;;;23.50;11.63;;;19.70;52.80;;;;;;4980112;28;46486;-69
2022/08/31 07:57:46;;;;;;;17.30;11.67;;;19.70;52.50;;;;;;4978428;28;46631;-67
2022/08/31 08:00:31;;;;;;;19.13;12.30;;;19.80;52.30;;;;;;4979546;28;46538;-66
2022/08/31 08:03:05;;;;;;;19.67;12.27;;;19.70;52.60;;;;;;4978841;28;46517;-67
2022/08/31 08:05:37;;;;;;;19.30;10.73;;;19.60;52.70;;;;;;4979640;28;46548;-67
2022/08/31 08:08:04;;;;;;;16.93;11.57;;;19.60;52.70;;;;;;4979990;28;46486;-69
2022/08/31 08:10:32;;;;;;;18.30;12.07;;;19.70;52.60;;;;;;4979476;28;47959;-67
2022/08/31 08:13:04;;;;;;;18.40;11.37;;;19.80;52.20;;;;;;4978777;28;46430;-67
2022/08/31 08:15:32;;;;;;;23.60;11.80;;;19.80;51.90;;;;;;4980471;28;46547;-66
2022/08/31 08:17:59;;;;;;;18.83;11.27;;;19.90;51.40;;;;;;4978209;28;46395;-66
2022/08/31 08:20:24;;;;;;;18.67;11.03;;;20.10;50.90;;;;;;4979972;28;48137;-66
2022/08/31 08:22:50;;;;;;;22.37;11.00;;;20.20;50.10;;;;;;4977728;28;46695;-69
2022/08/31 08:25:16;;;;;;;17.70;10.70;;;20.20;50.00;;;;;;4980161;28;46411;-66
2022/08/31 08:27:41;;;;;;;18.13;10.90;;;20.30;49.70;;;;;;4980214;28;46467;-68
2022/08/31 08:30:12;;;;;;;19.47;10.80;;;20.40;49.30;;;;;;4979019;28;47220;-68
2022/08/31 08:32:40;;;;;;;22.00;10.77;;;20.60;48.20;;;;;;4979224;28;46623;-66
2022/08/31 08:35:07;;;;;;;17.73;9.43;;;20.80;48.40;;;;;;4979337;28;46431;-66
2022/08/31 08:37:33;;;;;;;13.30;8.87;;;20.80;48.20;;;;;;4980493;28;46450;-66
2022/08/31 08:40:03;;;;;;;12.97;9.47;;;20.80;48.00;;;;;;4978904;28;47171;-68
2022/08/31 08:42:29;;;;;;;16.33;9.67;;;20.80;47.50;;;;;;4976396;28;46415;-66
2022/08/31 08:44:55;;;;;;;17.43;9.97;;;20.80;47.30;;;;;;4979581;28;46416;-68
2022/08/31 08:47:27;;;;;;;22.20;9.77;;;20.90;47.20;;;;;;4979034;28;46375;-66
2022/08/31 08:49:55;;;;;;;15.20;9.43;;;21.00;46.90;;;;;;4979464;28;47179;-66
2022/08/31 08:52:40;;;;;;;16.73;10.43;;;21.00;46.20;;;;;;4978717;28;46663;-66
2022/08/31 08:55:15;;;;;;;17.83;10.13;;;21.00;46.40;;;;;;4980174;28;46462;-66
2022/08/31 08:57:42;;;;;;;13.17;9.30;;;21.00;45.80;;;;;;4978456;28;46485;-67
2022/08/31 09:00:15;;;;;;;17.43;9.30;;;20.90;45.70;;;;;;4977861;28;47239;-66
2022/08/31 09:02:45;;;;;;;13.23;8.57;;;20.70;45.30;;;;;;4978360;28;47107;-66
2022/08/31 09:05:52;;;;;;;16.73;9.70;;;20.80;45.30;;;;;;4979762;28;46296;-66
2022/08/31 09:08:40;;;;;;;18.93;9.70;;;20.80;45.10;;;;;;4993271;28;45943;-66
2022/08/31 09:11:22;;;;;;;14.97;9.17;;;20.90;44.50;;;;;;4978628;28;46514;-66
2022/08/31 09:14:05;;;;;;;15.30;9.40;;;21.00;44.00;;;;;;4977195;28;46360;-68
2022/08/31 09:17:01;;;;;;;18.60;9.50;;;20.90;43.60;;;;;;4978152;28;46439;-70
2022/08/31 09:19:26;;;;;;;14.93;8.30;;;21.20;43.40;;;;;;4977099;28;46739;-69
2022/08/31 09:21:55;;;;;;;14.83;9.30;;;21.40;42.80;;;;;;4976627;28;46555;-68
2022/08/31 09:24:28;;;;;;;18.47;10.27;;;21.50;42.40;;;;;;4977768;28;46344;-68
2022/08/31 09:27:17;;;;;;;18.10;10.13;;;21.60;42.20;;;;;;4974851;28;46389;-69
2022/08/31 09:29:56;;;;;;;20.20;10.33;;;21.70;41.90;;;;;;4977303;28;46488;-69
2022/08/31 09:32:25;;;;;;;15.80;11.00;;;21.80;41.00;;;;;;4982304;28;46072;-68
2022/08/31 09:35:22;;;;;;;23.13;10.67;;;21.70;40.60;;;;;;4977061;28;45917;-69
2022/08/31 09:38:00;;;;;;;15.27;9.80;;;21.70;41.10;;;;;;4976956;28;46482;-66
2022/08/31 09:40:48;;;;;;;17.20;9.60;;;21.70;40.70;;;;;;4976654;28;46762;-66
2022/08/31 09:43:21;;;;;;;17.70;10.03;;;21.80;40.60;;;;;;4976480;28;47148;-67
2022/08/31 09:45:56;;;;;;;17.50;10.07;;;21.60;40.40;;;;;;4975135;28;46381;-68
2022/08/31 09:48:51;;;;;;;22.00;10.70;;;21.30;40.90;;;;;;4975773;28;46664;-67
2022/08/31 09:51:23;;;;;;;23.17;11.27;;;21.20;41.40;;;;;;4977995;28;46345;-67
2022/08/31 09:56:51;;;;;;;23.37;10.40;;;21.10;41.40;;;;;;4975793;28;45806;-67
2022/08/31 09:59:32;;;;;;;18.10;9.80;;;21.10;41.30;;;;;;4978864;28;46573;-69
2022/08/31 10:02:01;;;;;;;19.30;11.17;;;21.20;41.30;;;;;;4977087;28;46724;-68
2022/08/31 10:04:35;;;;;;;21.97;9.73;;;21.30;41.00;;;;;;4977678;28;46523;-69
2022/08/31 10:07:10;;;;;;;16.87;10.37;;;21.60;40.60;;;;;;4977525;28;46533;-68
2022/08/31 10:09:45;;;;;;;22.10;11.80;;;21.80;39.40;;;;;;4978430;28;46415;-67
2022/08/31 10:12:23;;;;;;;17.30;10.67;;;21.60;39.70;;;;;;4978397;28;46413;-69
2022/08/31 10:14:56;;;;;;;16.70;10.83;;;21.40;39.70;;;;;;4974583;28;46378;-68
2022/08/31 10:17:34;;;;;;;25.50;10.90;;;21.30;40.00;;;;;;4976802;28;45906;-68
2022/08/31 10:20:21;;;;;;;15.67;10.50;;;21.20;40.40;;;;;;4979289;28;46502;-68
2022/08/31 10:23:13;;;;;;;15.53;9.83;;;21.00;40.70;;;;;;4978047;28;46364;-68
2022/08/31 10:25:47;;;;;;;15.10;10.63;;;21.00;40.50;;;;;;4976654;28;46426;-69
2022/08/31 10:28:23;;;;;;;16.80;11.17;;;20.70;41.10;;;;;;4976899;28;46438;-70
2022/08/31 10:31:00;;;;;;;20.40;10.87;;;20.80;41.20;;;;;;4977927;28;46392;-69
2022/08/31 10:35:03;;;;;;;17.67;10.87;;;20.70;41.30;;;;;;4976497;28;46431;-68
2022/08/31 10:36:38;;;;;;;15.10;9.50;;;20.70;41.40;;;;;;4975706;28;46634;-67
2022/08/31 10:39:18;;;;;;;18.00;10.47;;;21.10;40.50;;;;;;4977558;28;45877;-71
2022/08/31 10:41:48;;;;;;;21.90;11.77;;;20.90;40.00;;;;;;4975234;28;46534;-68
2022/08/31 10:44:25;;;;;;;22.20;10.77;;;20.90;41.10;;;;;;4975034;28;46352;-69
2022/08/31 10:46:57;;;;;;;17.10;11.27;;;20.80;41.30;;;;;;4975792;28;47158;-68
2022/08/31 10:49:23;;;;;;;14.33;10.40;;;20.80;41.90;;;;;;4977567;28;46498;-68
2022/08/31 10:52:05;;;;;;;18.87;10.77;;;20.60;42.20;;;;;;4976161;28;45935;-69
2022/08/31 10:55:16;;;;;;;15.20;11.70;;;20.60;42.60;;;;;;4978246;28;46435;-68
2022/08/31 10:57:55;;;;;;;16.47;11.67;;;20.60;42.60;;;;;;4973559;28;47008;-68
2022/08/31 11:00:44;;;;;;;19.03;10.53;;;20.60;42.50;;;;;;4975161;28;46380;-67
2022/08/31 11:03:34;;;;;;;20.07;11.70;;;20.60;42.50;;;;;;4975786;28;46517;-68
2022/08/31 11:06:18;;;;;;;18.20;12.00;;;20.60;42.70;;;;;;4977137;28;46435;-67
2022/08/31 11:09:08;;;;;;;23.80;11.40;;;20.60;42.50;;;;;;4974624;28;47381;-67
2022/08/31 11:12:03;;;;;;;20.13;11.90;;;20.60;41.50;;;;;;4975865;28;46419;-68
2022/08/31 11:14:35;;;;;;;17.60;11.33;;;20.60;42.60;;;;;;4978002;28;46504;-68
2022/08/31 11:17:31;;;;;;;21.03;11.30;;;20.40;43.00;;;;;;4977133;28;46475;-67
2022/08/31 11:20:08;;;;;;;19.43;12.07;;;20.20;43.50;;;;;;4979085;28;46516;-68
2022/08/31 11:22:43;;;;;;;20.03;11.57;;;20.10;44.00;;;;;;4981176;28;46451;-67
2022/08/31 11:25:46;;;;;;;19.37;11.70;;;20.00;44.30;;;;;;4980787;28;46396;-67
2022/08/31 11:28:55;;;;;;;16.43;10.87;;;20.10;44.50;;;;;;4979914;28;46412;-67
2022/08/31 11:31:29;;;;;;;18.77;11.73;;;20.10;44.40;;;;;;4977522;28;46041;-67
2022/08/31 11:34:07;;;;;;;17.43;11.13;;;20.00;44.80;;;;;;4978699;28;45954;-68
2022/08/31 11:36:55;;;;;;;20.40;11.50;;;19.90;44.50;;;;;;4979464;28;46356;-67
2022/08/31 11:39:29;;;;;;;16.60;11.20;;;19.80;44.90;;;;;;4980539;28;46404;-67
2022/08/31 11:41:58;;;;;;;17.63;10.50;;;19.60;45.30;;;;;;4978975;28;48003;-67
2022/08/31 11:44:29;;;;;;;14.50;9.80;;;19.50;46.00;;;;;;4980733;28;46411;-67
2022/08/31 11:47:05;;;;;;;22.20;10.53;;;19.20;46.90;;;;;;4979101;28;46487;-66
2022/08/31 11:49:42;;;;;;;18.10;10.43;;;19.20;46.90;;;;;;4978973;28;46392;-67
2022/08/31 11:52:20;;;;;;;18.67;11.40;;;19.20;46.90;;;;;;4979989;28;46593;-68
2022/08/31 11:54:47;;;;;;;20.87;10.37;;;19.20;46.90;;;;;;4980369;28;46403;-68
2022/08/31 11:57:19;;;;;;;15.83;9.50;;;19.30;47.00;;;;;;4978359;28;46412;-68
2022/08/31 11:59:49;;;;;;;17.13;11.40;;;19.30;47.00;;;;;;4978133;28;46403;-67
2022/08/31 12:02:24;;;;;;;22.23;9.90;;;19.30;47.00;;;;;;4979164;28;47262;-68
2022/08/31 12:04:56;;;;;;;16.63;10.30;;;19.30;47.00;;;;;;4980614;28;45745;-66
2022/08/31 12:07:28;;;;;;;17.17;10.53;;;19.20;47.00;;;;;;4979958;28;46384;-68
2022/08/31 12:10:31;;;;;;;18.30;10.33;;;19.20;47.00;;;;;;4995759;28;46565;-68
2022/08/31 12:13:02;;;;;;;16.67;10.60;;;19.30;47.00;;;;;;4994094;28;46654;-67
2022/08/31 12:15:33;;;;;;;15.80;9.07;;;19.50;47.20;;;;;;4978144;28;46408;-66
2022/08/31 12:18:10;;;;;;;20.13;10.47;;;19.40;47.10;;;;;;4978943;28;45943;-67
2022/08/31 12:24:04;;;;;;;19.70;10.90;;;19.60;47.30;;;;;;4978511;28;46378;-67
2022/08/31 12:26:56;;;;;;;17.33;10.60;;;19.50;47.20;;;;;;4980983;28;46304;-67
2022/08/31 12:29:22;;;;;;;13.87;10.77;;;19.30;47.00;;;;;;4979219;28;46370;-66
2022/08/31 12:32:12;;;;;;;22.10;11.50;;;19.20;47.00;;;;;;4980104;28;46745;-67
2022/08/31 12:34:45;;;;;;;21.50;12.43;;;19.10;47.40;;;;;;4995465;28;49400;-69
2022/08/31 12:37:32;;;;;;;18.10;10.90;;;19.10;47.20;;;;;;4979598;28;46436;-68
2022/08/31 12:40:17;;;;;;;16.73;12.03;;;19.00;48.00;;;;;;4979740;28;46235;-67
2022/08/31 12:43:01;;;;;;;23.77;12.10;;;19.00;48.10;;;;;;4976717;28;46476;-70
2022/08/31 12:45:57;;;;;;;19.73;12.13;;;18.80;49.00;;;;;;4977822;28;46359;-69
2022/08/31 12:48:52;;;;;;;18.53;13.17;;;18.80;49.40;;;;;;4977848;28;46439;-69
2022/08/31 12:51:23;;;;;;;22.10;13.23;;;18.80;49.20;;;;;;4976475;28;47027;-69
2022/08/31 12:54:06;;;;;;;24.57;13.47;;;18.80;48.50;;;;;;4977615;28;46428;-68
2022/08/31 12:56:54;;;;;;;22.67;13.17;;;18.70;50.00;;;;;;4977973;28;46666;-68
2022/08/31 12:59:26;;;;;;;19.20;13.57;;;18.60;51.10;;;;;;4978609;28;46663;-69
2022/08/31 13:01:52;;;;;;;22.63;13.43;;;18.50;51.10;;;;;;4977599;28;46484;-70